Time;durP1;ratioP1;P1;durP2;ratioP2;P2;SDS_P1;SDS_P2;PMS_P1;PMS_P2;Temp;Humidity;BMP_temperature;BMP_pressure;BME280_temperature;BME280_humidity;BME280_pressure;Samples;Min_cycle;Max_cycle;Signal;HPM_P1;HPM_P2
2021/07/12 00:01:24;;;;;;;8.98;8.20;;;;;;;24.53;48.69;99290.97;5053290;28;20032;-73
2021/07/12 00:03:49;;;;;;;10.18;9.20;;;;;;;24.84;48.64;99345.66;5053302;28;20556;-74
2021/07/12 00:06:14;;;;;;;11.20;8.13;;;;;;;24.80;48.52;99334.59;5053363;28;20498;-74
2021/07/12 00:08:40;;;;;;;8.93;8.13;;;;;;;24.90;48.64;99350.75;5053437;28;20029;-74
2021/07/12 00:11:05;;;;;;;9.77;8.77;;;;;;;24.53;48.53;99297.16;5053269;28;20020;-73
2021/07/12 00:13:31;;;;;;;10.05;9.02;;;;;;;24.64;48.76;99306.03;5053322;28;20033;-76
2021/07/12 00:15:56;;;;;;;8.90;8.00;;;;;;;24.65;48.47;99307.66;5053107;28;20498;-76
2021/07/12 00:18:22;;;;;;;9.43;8.25;;;;;;;24.74;48.63;99338.38;5053273;28;20029;-74
2021/07/12 00:20:47;;;;;;;9.82;8.82;;;;;;;24.32;48.71;99279.41;5053180;28;20417;-74
2021/07/12 00:23:13;;;;;;;9.82;8.82;;;;;;;24.70;48.93;99351.63;5053048;28;20028;-74
2021/07/12 00:25:38;;;;;;;10.90;9.23;;;;;;;24.58;48.96;99342.22;5052918;28;20021;-74
2021/07/12 00:28:04;;;;;;;9.75;8.75;;;;;;;24.11;49.08;99280.50;5052780;28;20036;-75
2021/07/12 00:30:30;;;;;;;11.82;8.77;;;;;;;24.50;49.30;99356.25;5053054;28;20021;-74
2021/07/12 00:32:58;;;;;;;9.80;8.82;;;;;;;24.48;49.15;99351.13;5053071;28;20418;-75
2021/07/12 00:35:25;;;;;;;10.80;9.70;;;;;;;24.28;49.55;99330.41;5052680;28;20486;-74
2021/07/12 00:37:52;;;;;;;9.05;8.25;;;;;;;24.16;49.36;99323.66;5052875;28;20112;-74
2021/07/12 00:40:19;;;;;;;8.88;8.13;;;;;;;23.79;49.59;99261.94;5051533;28;20029;-74
2021/07/12 00:42:48;;;;;;;9.55;8.65;;;;;;;24.29;49.55;99350.09;5052728;28;20053;-74
2021/07/12 00:45:23;;;;;;;10.82;9.02;;;;;;;24.19;49.64;99342.78;5052759;28;20033;-74
2021/07/12 00:47:50;;;;;;;10.13;9.05;;;;;;;24.21;49.61;99359.50;5051580;28;20021;-74
2021/07/12 00:50:17;;;;;;;9.27;8.55;;;;;;;24.16;49.76;99347.91;5052120;28;20047;-74
2021/07/12 00:52:44;;;;;;;10.95;8.93;;;;;;;24.18;49.57;99343.88;5052810;28;20585;-74
2021/07/12 00:55:32;;;;;;;10.77;8.23;;;;;;;24.11;50.05;99345.22;5050834;28;20060;-75
2021/07/12 00:58:00;;;;;;;10.88;9.65;;;;;;;24.11;49.94;99354.13;5052014;28;20079;-74
2021/07/12 01:00:26;;;;;;;9.70;8.80;;;;;;;23.91;49.85;99332.56;5052628;28;20052;-74
2021/07/12 01:02:53;;;;;;;9.48;8.50;;;;;;;24.01;50.01;99356.84;5052580;28;20025;-73
2021/07/12 01:05:20;;;;;;;10.00;9.10;;;;;;;24.02;50.05;99356.56;5052298;28;20486;-74
2021/07/12 01:07:46;;;;;;;10.70;9.00;;;;;;;24.03;50.03;99344.69;5052424;28;20021;-73
2021/07/12 01:10:13;;;;;;;10.15;9.15;;;;;;;24.09;49.83;99345.50;5052340;28;20421;-73
2021/07/12 01:12:39;;;;;;;9.82;8.93;;;;;;;24.12;49.92;99344.16;5051125;28;20089;-75
2021/07/12 01:15:15;;;;;;;8.82;8.13;;;;;;;24.14;49.93;99358.19;5051986;28;20539;-74
2021/07/12 01:18:08;;;;;;;10.38;9.43;;;;;;;24.12;49.79;99357.63;5052032;28;20086;-75
2021/07/12 01:21:04;;;;;;;10.45;8.98;;;;;;;24.11;50.01;99364.13;5050865;28;20035;-75
2021/07/12 01:23:52;;;;;;;10.13;9.23;;;;;;;24.09;49.68;99359.81;5052072;28;20017;-75
2021/07/12 01:26:51;;;;;;;10.40;9.32;;;;;;;24.07;50.16;99353.88;5051958;28;20074;-72
2021/07/12 01:29:25;;;;;;;9.95;9.13;;;;;;;24.07;49.82;99348.47;5052040;28;20024;-75
2021/07/12 01:32:01;;;;;;;11.65;9.00;;;;;;;24.10;49.63;99347.13;5050648;28;20021;-75
2021/07/12 01:34:59;;;;;;;9.93;9.02;;;;;;;24.06;50.14;99346.03;5050440;28;20117;-75
2021/07/12 01:37:45;;;;;;;10.70;9.60;;;;;;;24.01;50.31;99349.56;5051766;28;20025;-74
2021/07/12 01:40:21;;;;;;;11.07;9.98;;;;;;;22.32;50.17;99079.44;5051748;28;20024;-74
2021/07/12 01:42:58;;;;;;;11.10;10.00;;;;;;;24.00;50.19;99347.13;5051447;28;20040;-75
2021/07/12 01:45:29;;;;;;;10.48;9.38;;;;;;;23.92;50.08;99335.00;5051419;28;20024;-75
2021/07/12 01:48:03;;;;;;;11.52;10.35;;;;;;;23.98;50.06;99347.41;5051514;28;20497;-74
2021/07/12 01:50:50;;;;;;;10.27;9.23;;;;;;;23.68;50.09;99306.94;5051614;28;20037;-74
2021/07/12 01:53:46;;;;;;;11.32;9.73;;;;;;;23.95;50.34;99350.63;5051692;28;20048;-74
2021/07/12 01:56:22;;;;;;;10.07;9.00;;;;;;;23.90;50.19;99341.75;5051249;28;20029;-74
2021/07/12 01:59:02;;;;;;;10.73;9.38;;;;;;;23.95;50.10;99345.25;5050038;28;20117;-75
2021/07/12 02:01:30;;;;;;;9.80;8.85;;;;;;;23.95;50.09;99361.44;5049332;28;20409;-75
2021/07/12 02:03:57;;;;;;;9.88;8.88;;;;;;;23.55;50.28;99277.81;5051336;28;20021;-73
2021/07/12 02:06:23;;;;;;;9.57;8.57;;;;;;;23.94;50.31;99345.50;5051351;28;20020;-74
2021/07/12 02:08:51;;;;;;;10.50;9.52;;;;;;;23.89;50.51;99340.94;5051473;28;20035;-74
2021/07/12 02:11:17;;;;;;;11.52;9.27;;;;;;;23.83;50.32;99343.91;5051423;28;20017;-75
2021/07/12 02:13:50;;;;;;;10.38;9.38;;;;;;;23.82;50.61;99344.97;5051592;28;20025;-73
2021/07/12 02:16:18;;;;;;;14.95;9.93;;;;;;;23.34;50.43;99285.84;5049885;28;20053;-74
2021/07/12 02:18:45;;;;;;;10.27;9.15;;;;;;;23.57;50.96;99345.75;5051270;28;20099;-74
2021/07/12 02:21:11;;;;;;;11.63;9.57;;;;;;;23.30;51.12;99306.34;5051352;28;20524;-74
2021/07/12 02:23:41;;;;;;;9.82;8.82;;;;;;;23.26;50.80;99305.25;5051211;28;20028;-74
2021/07/12 02:26:09;;;;;;;10.63;9.63;;;;;;;23.60;50.97;99351.41;5051313;28;20074;-74
2021/07/12 02:28:35;;;;;;;10.15;9.15;;;;;;;23.61;50.90;99353.03;5051321;28;20033;-74
2021/07/12 02:31:01;;;;;;;11.15;10.02;;;;;;;23.52;50.79;99340.31;5051155;28;20155;-74
2021/07/12 02:33:28;;;;;;;12.10;9.85;;;;;;;23.56;50.78;99350.31;5051085;28;20459;-74
2021/07/12 02:35:54;;;;;;;11.18;9.25;;;;;;;23.58;50.83;99350.06;5050808;28;20017;-75
2021/07/12 02:38:21;;;;;;;10.88;9.77;;;;;;;23.61;50.75;99368.38;5051053;28;20053;-74
2021/07/12 02:40:49;;;;;;;12.10;10.13;;;;;;;23.55;50.96;99354.09;5050782;28;20445;-74
2021/07/12 02:43:16;;;;;;;12.90;9.60;;;;;;;23.50;51.29;99372.91;5050882;28;20502;-75
2021/07/12 02:45:44;;;;;;;12.88;10.80;;;;;;;23.09;51.11;99299.28;5051067;28;20021;-74
2021/07/12 02:48:09;;;;;;;10.98;9.52;;;;;;;23.20;51.04;99322.47;5050905;28;20021;-75
2021/07/12 02:50:35;;;;;;;10.80;9.55;;;;;;;23.44;51.16;99361.31;5049609;28;20040;-75
2021/07/12 02:53:10;;;;;;;11.82;10.40;;;;;;;23.38;51.34;99345.41;5049472;28;20031;-74
2021/07/12 02:55:36;;;;;;;11.35;10.25;;;;;;;23.42;51.27;99357.28;5050819;28;20086;-75
2021/07/12 02:58:01;;;;;;;14.18;10.70;;;;;;;23.19;51.43;99330.81;5050599;28;20033;-75
2021/07/12 03:00:27;;;;;;;15.77;10.50;;;;;;;23.02;51.30;99302.19;5050918;28;20021;-73
2021/07/12 03:02:52;;;;;;;13.00;10.38;;;;;;;23.23;51.67;99353.47;5050897;28;20017;-73
2021/07/12 03:05:18;;;;;;;11.20;9.77;;;;;;;23.26;51.71;99366.41;5050925;28;20428;-75
2021/07/12 03:08:22;;;;;;;10.50;9.52;;;;;;;23.30;51.64;99365.59;5050953;28;20021;-74
2021/07/12 03:10:54;;;;;;;15.27;10.85;;;;;;;23.37;51.38;99368.84;5049596;28;20064;-73
2021/07/12 03:13:31;;;;;;;11.55;10.45;;;;;;;23.35;51.48;99371.00;5052441;28;20494;-72
2021/07/12 03:15:57;;;;;;;11.70;10.35;;;;;;;23.06;51.48;99324.06;5054307;28;20525;-74
2021/07/12 03:18:28;;;;;;;11.20;10.07;;;;;;;23.28;51.42;99359.66;5053062;28;20036;-73
2021/07/12 03:20:57;;;;;;;10.82;9.70;;;;;;;23.10;51.39;99333.22;5054226;28;20457;-73
2021/07/12 03:23:24;;;;;;;12.02;10.27;;;;;;;23.38;51.36;99367.78;5054032;28;20496;-75
2021/07/12 03:25:59;;;;;;;12.98;10.80;;;;;;;23.38;51.44;99373.16;5054028;28;20120;-73
2021/07/12 03:28:25;;;;;;;11.20;9.75;;;;;;;23.37;51.34;99371.53;5053978;28;20021;-73
2021/07/12 03:30:51;;;;;;;10.95;9.93;;;;;;;23.38;51.20;99372.34;5054316;28;20017;-75
2021/07/12 03:33:19;;;;;;;11.68;10.55;;;;;;;23.17;51.11;99341.03;5054051;28;20086;-73
2021/07/12 03:35:47;;;;;;;12.45;10.32;;;;;;;23.02;51.30;99315.66;5054111;28;20021;-75
2021/07/12 03:38:19;;;;;;;11.13;10.02;;;;;;;23.33;51.50;99373.16;5052824;28;20035;-73
2021/07/12 03:40:45;;;;;;;13.10;10.55;;;;;;;23.28;51.65;99366.94;5052967;28;20111;-73
2021/07/12 03:43:13;;;;;;;11.75;10.63;;;;;;;23.04;51.75;99329.69;5054154;28;20033;-75
2021/07/12 03:45:39;;;;;;;13.80;10.80;;;;;;;23.23;51.55;99367.72;5054013;28;20050;-75
2021/07/12 03:48:06;;;;;;;13.07;10.55;;;;;;;23.27;51.52;99370.72;5053944;28;20029;-75
2021/07/12 03:50:32;;;;;;;11.43;10.30;;;;;;;23.08;51.58;99338.06;5053955;28;20025;-75
2021/07/12 03:53:01;;;;;;;12.55;10.77;;;;;;;23.32;51.35;99368.03;5053993;28;20115;-74
2021/07/12 03:55:28;;;;;;;12.32;11.00;;;;;;;23.38;51.40;99383.13;5053580;28;20029;-74
2021/07/12 03:57:54;;;;;;;11.60;10.20;;;;;;;23.16;51.13;99329.47;5053438;28;20025;-75
2021/07/12 04:00:22;;;;;;;13.27;10.45;;;;;;;23.46;51.05;99372.63;5053594;28;20040;-74
2021/07/12 04:02:48;;;;;;;12.82;10.82;;;;;;;23.19;51.17;99344.28;5053974;28;20029;-75
2021/07/12 04:05:16;;;;;;;12.43;10.80;;;;;;;23.42;51.22;99373.44;5053747;28;20021;-74
2021/07/12 04:07:42;;;;;;;12.43;10.73;;;;;;;22.86;51.52;99299.72;5053569;28;20395;-74
2021/07/12 04:10:10;;;;;;;13.13;11.05;;;;;;;23.14;51.29;99337.00;5053471;28;20031;-74
2021/07/12 04:12:36;;;;;;;12.27;11.00;;;;;;;23.36;51.29;99369.91;5053426;28;20078;-74
2021/07/12 04:15:03;;;;;;;12.38;10.43;;;;;;;22.97;51.34;99307.56;5053164;28;20035;-74
2021/07/12 04:17:29;;;;;;;11.75;10.55;;;;;;;23.31;51.31;99369.91;5052051;28;20055;-74
2021/07/12 04:19:56;;;;;;;12.10;10.90;;;;;;;23.37;51.47;99379.63;5053261;28;20025;-74
2021/07/12 04:22:22;;;;;;;18.92;11.27;;;;;;;23.37;51.39;99376.13;5053132;28;20060;-75
2021/07/12 04:24:47;;;;;;;12.77;9.63;;;;;;;23.18;51.37;99339.97;5052403;28;20052;-79
2021/07/12 04:27:13;;;;;;;12.90;10.05;;;;;;;23.05;51.36;99317.03;5053348;28;20485;-80
2021/07/12 04:29:38;;;;;;;21.73;11.23;;;;;;;23.09;51.22;99313.56;5053072;28;20100;-80
2021/07/12 04:32:04;;;;;;;11.15;9.98;;;;;;;23.60;51.09;99378.34;5053110;28;20104;-80
2021/07/12 04:34:30;;;;;;;14.18;10.43;;;;;;;23.66;50.96;99371.91;5053030;28;20029;-80
2021/07/12 04:36:56;;;;;;;13.45;10.70;;;;;;;23.78;50.88;99382.41;5051621;28;20079;-80
2021/07/12 04:39:22;;;;;;;12.93;10.65;;;;;;;23.58;50.85;99350.06;5051760;28;20040;-80
2021/07/12 04:41:48;;;;;;;12.13;10.63;;;;;;;23.41;50.84;99312.53;5052687;28;20033;-81
2021/07/12 04:44:13;;;;;;;16.33;11.10;;;;;;;23.30;50.81;99279.38;5052800;28;20108;-79
2021/07/12 04:46:39;;;;;;;16.30;11.05;;;;;;;23.63;50.65;99328.50;5052746;28;20025;-80
2021/07/12 04:49:04;;;;;;;16.45;10.63;;;;;;;24.06;50.57;99387.31;5051549;28;20037;-80
2021/07/12 04:51:30;;;;;;;15.15;11.43;;;;;;;23.63;50.61;99309.63;5052746;28;20119;-80
2021/07/12 04:53:56;;;;;;;17.10;11.07;;;;;;;24.12;50.88;99382.72;5052842;28;20033;-80
2021/07/12 04:56:21;;;;;;;15.27;10.95;;;;;;;23.93;50.85;99351.97;5052418;28;20111;-81
2021/07/12 04:58:48;;;;;;;16.00;10.50;;;;;;;23.70;50.92;99324.44;5052256;28;20032;-80
2021/07/12 05:01:15;;;;;;;12.27;10.23;;;;;;;23.94;50.82;99334.72;5052530;28;20559;-79
2021/07/12 05:03:41;;;;;;;12.73;11.32;;;;;;;23.68;51.06;99304.22;5051152;28;20032;-79
2021/07/12 05:06:06;;;;;;;12.13;10.88;;;;;;;24.19;51.31;99387.84;5052653;28;20028;-77
2021/07/12 05:08:32;;;;;;;13.88;11.63;;;;;;;23.88;51.34;99320.44;5052589;28;20029;-81
2021/07/12 05:10:58;;;;;;;11.88;10.63;;;;;;;24.14;51.51;99340.09;5051056;28;20520;-78
2021/07/12 05:13:24;;;;;;;14.18;11.18;;;;;;;24.39;51.48;99377.06;5052220;28;20035;-79
2021/07/12 05:15:49;;;;;;;14.35;10.57;;;;;;;24.04;51.18;99300.47;5050371;28;20412;-78
2021/07/12 05:18:15;;;;;;;12.35;10.25;;;;;;;24.59;50.99;99371.66;5052161;28;20416;-78
2021/07/12 05:20:40;;;;;;;11.95;10.75;;;;;;;24.17;51.09;99292.88;5052274;28;20087;-80
2021/07/12 05:23:06;;;;;;;11.23;10.13;;;;;;;24.51;50.88;99334.38;5052157;28;20458;-75
2021/07/12 05:25:32;;;;;;;13.38;11.10;;;;;;;24.80;50.75;99369.69;5050770;28;20029;-74
2021/07/12 05:27:57;;;;;;;16.45;11.30;;;;;;;24.81;50.74;99357.81;5050633;28;20035;-73
2021/07/12 05:30:23;;;;;;;12.73;11.25;;;;;;;24.52;50.60;99309.00;5051966;28;20111;-73
2021/07/12 05:32:48;;;;;;;11.63;10.50;;;;;;;24.92;50.53;99374.78;5052104;28;20036;-73
2021/07/12 05:35:15;;;;;;;13.10;10.55;;;;;;;25.01;50.56;99368.56;5051574;28;20476;-72
2021/07/12 05:37:41;;;;;;;11.15;10.05;;;;;;;25.07;50.29;99369.34;5051570;28;20029;-75
2021/07/12 05:40:07;;;;;;;11.40;10.20;;;;;;;25.14;50.40;99363.63;5051676;28;20028;-74
2021/07/12 05:42:33;;;;;;;12.05;10.45;;;;;;;24.85;50.17;99312.16;5051228;28;20037;-74
2021/07/12 05:44:59;;;;;;;31.90;11.77;;;;;;;25.10;50.35;99359.88;5029508;28;20079;-75
2021/07/12 05:47:24;;;;;;;11.85;9.70;;;;;;;25.36;50.01;99369.50;5034019;28;20056;-74
2021/07/12 05:49:50;;;;;;;11.50;9.77;;;;;;;25.45;49.90;99373.22;5044741;28;20044;-74
2021/07/12 05:52:15;;;;;;;14.57;11.40;;;;;;;25.52;50.10;99376.41;5045167;28;20029;-73
2021/07/12 05:54:40;;;;;;;30.83;13.07;;;;;;;25.52;49.99;99364.78;5049633;28;20036;-73
2021/07/12 05:57:06;;;;;;;12.18;10.85;;;;;;;25.67;49.48;99372.03;5033245;28;20052;-74
2021/07/12 05:59:32;;;;;;;13.65;11.77;;;;;;;25.70;49.45;99366.88;5039953;28;20059;-74
2021/07/12 06:01:57;;;;;;;14.38;11.23;;;;;;;25.47;49.58;99316.97;5043158;28;20036;-74
2021/07/12 06:04:22;;;;;;;13.27;11.73;;;;;;;25.79;49.48;99361.66;5046115;28;20447;-74
2021/07/12 06:06:48;;;;;;;14.20;12.60;;;;;;;25.89;49.26;99373.22;5063392;28;20032;-74
2021/07/12 06:09:13;;;;;;;13.38;11.65;;;;;;;25.92;49.37;99382.66;5051024;28;20025;-74
2021/07/12 06:11:39;;;;;;;13.07;11.88;;;;;;;25.33;48.86;99278.97;5050146;28;20032;-74
2021/07/12 06:14:05;;;;;;;14.02;12.65;;;;;;;25.68;49.11;99323.06;5043338;28;20037;-74
2021/07/12 06:16:30;;;;;;;14.77;13.32;;;;;;;26.09;49.31;99382.28;5035982;28;20074;-75
2021/07/12 06:18:56;;;;;;;14.68;10.27;;;;;;;26.13;48.97;99375.22;5046331;28;20025;-74
2021/07/12 06:21:21;;;;;;;12.00;10.68;;;;;;;26.17;49.04;99378.97;5051165;28;20467;-74
2021/07/12 06:23:47;;;;;;;11.55;10.35;;;;;;;26.10;48.98;99362.25;5045831;28;20036;-74
2021/07/12 06:26:12;;;;;;;13.88;12.52;;;;;;;25.96;48.88;99332.31;5030548;28;20406;-73
2021/07/12 06:28:37;;;;;;;14.20;12.80;;;;;;;26.35;48.66;99378.28;5034686;28;20030;-73
2021/07/12 06:31:03;;;;;;;14.25;12.63;;;;;;;26.16;48.64;99336.75;5033427;28;20031;-75
2021/07/12 06:33:29;;;;;;;14.85;12.32;;;;;;;26.50;48.61;99369.19;5044499;28;20032;-75
2021/07/12 06:35:55;;;;;;;16.83;15.07;;;;;;;26.25;48.31;99319.59;5043197;28;20062;-73
2021/07/12 06:38:21;;;;;;;15.27;13.88;;;;;;;26.35;48.20;99320.63;5049246;28;20029;-73
2021/07/12 06:40:47;;;;;;;11.80;10.60;;;;;;;26.38;47.79;99326.28;5050415;28;20033;-73
2021/07/12 06:43:13;;;;;;;14.07;12.75;;;;;;;26.70;47.79;99368.16;5050511;28;20036;-75
2021/07/12 06:45:38;;;;;;;12.43;11.13;;;;;;;26.77;47.79;99371.38;5049704;28;20036;-75
2021/07/12 06:48:05;;;;;;;12.75;11.35;;;;;;;26.79;47.49;99369.16;5052133;28;20039;-74
2021/07/12 06:50:31;;;;;;;11.57;10.38;;;;;;;26.86;47.66;99366.91;5052915;28;20037;-74
2021/07/12 06:52:57;;;;;;;11.90;10.65;;;;;;;26.92;47.43;99366.56;5054422;28;20516;-74
2021/07/12 06:55:22;;;;;;;12.38;10.70;;;;;;;27.01;46.99;99365.97;5041815;28;20037;-74
2021/07/12 06:57:48;;;;;;;15.60;10.32;;;;;;;26.60;47.12;99304.91;5036840;28;20138;-74
2021/07/12 07:00:15;;;;;;;12.90;11.52;;;;;;;27.09;46.95;99357.97;5035192;28;20032;-74
2021/07/12 07:02:40;;;;;;;14.05;11.45;;;;;;;26.92;46.71;99334.06;5056298;28;20032;-74
2021/07/12 07:05:07;;;;;;;14.30;13.00;;;;;;;27.23;46.64;99372.44;5033780;28;20516;-74
2021/07/12 07:07:34;;;;;;;12.68;10.95;;;;;;;27.08;46.31;99339.31;5034479;28;20021;-74
2021/07/12 07:09:59;;;;;;;12.70;11.43;;;;;;;27.27;46.18;99369.13;5037387;28;20036;-76
2021/07/12 07:12:25;;;;;;;10.63;9.63;;;;;;;27.33;46.07;99376.09;5046440;28;20041;-73
2021/07/12 07:14:50;;;;;;;10.73;9.63;;;;;;;26.12;45.73;99200.41;5033951;28;20076;-75
2021/07/12 07:17:16;;;;;;;9.75;8.85;;;;;;;26.91;45.72;99308.06;5044578;28;20573;-73
2021/07/12 07:19:41;;;;;;;10.52;9.18;;;;;;;27.36;45.37;99372.81;5039776;28;20509;-73
2021/07/12 07:22:07;;;;;;;11.38;9.38;;;;;;;27.48;45.21;99373.97;5036424;28;20060;-72
2021/07/12 07:24:32;;;;;;;11.88;10.35;;;;;;;27.31;44.94;99341.16;5039697;28;20021;-74
2021/07/12 07:26:57;;;;;;;11.20;9.82;;;;;;;27.53;44.88;99373.94;5046054;28;20074;-74
2021/07/12 07:29:23;;;;;;;10.93;9.45;;;;;;;27.66;44.56;99375.13;5043546;28;20502;-74
2021/07/12 07:31:49;;;;;;;11.77;10.05;;;;;;;27.74;44.74;99387.22;5042438;28;20102;-75
2021/07/12 07:34:15;;;;;;;12.75;10.40;;;;;;;27.58;44.16;99343.22;5051246;28;20040;-74
2021/07/12 07:36:43;;;;;;;13.05;10.43;;;;;;;27.91;44.10;99384.78;5038899;28;20026;-74
2021/07/12 07:39:09;;;;;;;14.57;10.18;;;;;;;28.02;43.66;99374.56;5049286;28;20467;-75
2021/07/12 07:41:36;;;;;;;11.10;9.40;;;;;;;28.12;43.37;99379.81;5034978;28;20028;-74
2021/07/12 07:44:04;;;;;;;11.45;10.18;;;;;;;28.17;42.74;99382.44;5040549;28;20044;-75
2021/07/12 07:46:31;;;;;;;10.90;9.80;;;;;;;28.15;42.40;99369.16;5037942;28;20418;-76
2021/07/12 07:48:57;;;;;;;12.60;9.63;;;;;;;28.27;42.30;99378.81;5032285;28;20025;-75
2021/07/12 07:51:22;;;;;;;14.15;10.02;;;;;;;28.16;41.97;99362.63;5039553;28;20035;-75
2021/07/12 07:53:48;;;;;;;13.45;9.85;;;;;;;27.87;41.94;99296.94;5054525;28;20106;-74
2021/07/12 07:56:13;;;;;;;13.10;10.20;;;;;;;28.17;41.95;99347.16;5035400;28;20026;-74
2021/07/12 07:58:39;;;;;;;12.98;10.65;;;;;;;28.07;41.28;99304.72;5066713;28;20402;-75
2021/07/12 08:01:04;;;;;;;11.50;9.93;;;;;;;28.59;41.25;99377.94;5052643;28;20532;-72
2021/07/12 08:03:29;;;;;;;11.90;10.13;;;;;;;28.60;41.41;99379.56;5052684;28;20549;-73
2021/07/12 08:05:55;;;;;;;14.82;10.35;;;;;;;28.31;41.21;99323.59;5046332;28;20112;-74
2021/07/12 08:08:20;;;;;;;11.80;10.63;;;;;;;28.56;41.22;99333.19;5053285;28;20509;-74
2021/07/12 08:10:46;;;;;;;11.00;9.90;;;;;;;28.88;40.56;99373.03;5052704;28;20510;-73
2021/07/12 08:13:12;;;;;;;10.82;8.95;;;;;;;28.96;40.61;99371.53;5036174;28;20096;-74
2021/07/12 08:15:38;;;;;;;10.30;9.30;;;;;;;28.94;40.17;99366.41;5043503;28;20634;-73
2021/07/12 08:18:04;;;;;;;10.50;9.43;;;;;;;29.08;39.62;99375.38;5050486;28;20021;-74
2021/07/12 08:20:29;;;;;;;12.07;9.60;;;;;;;29.18;39.67;99373.53;5039409;28;20025;-72
2021/07/12 08:22:55;;;;;;;13.25;9.48;;;;;;;29.16;39.29;99360.25;5041903;28;20166;-75
2021/07/12 08:25:22;;;;;;;9.70;8.65;;;;;;;29.37;39.11;99372.28;5037145;28;20082;-72
2021/07/12 08:27:48;;;;;;;9.57;8.57;;;;;;;29.45;38.98;99370.00;5032343;28;20021;-72
2021/07/12 08:30:15;;;;;;;10.48;9.48;;;;;;;29.21;38.90;99316.63;5031186;28;20419;-75
2021/07/12 08:32:41;;;;;;;9.85;8.85;;;;;;;29.63;38.89;99369.81;5036260;28;20028;-74
2021/07/12 08:35:08;;;;;;;12.75;9.30;;;;;;;29.80;38.18;99365.66;5045145;28;20044;-74
2021/07/12 08:37:34;;;;;;;11.48;9.27;;;;;;;29.95;38.52;99376.16;5032594;28;20025;-74
2021/07/12 08:40:00;;;;;;;11.10;8.80;;;;;;;30.07;37.93;99371.00;5037245;28;20507;-74
2021/07/12 08:42:26;;;;;;;11.57;8.65;;;;;;;30.10;37.60;99372.28;5034498;28;20018;-75
2021/07/12 08:44:52;;;;;;;9.93;8.98;;;;;;;30.16;37.48;99366.41;5046459;28;20079;-75
2021/07/12 08:47:17;;;;;;;14.45;9.88;;;;;;;30.21;37.63;99369.00;5045104;28;20505;-74
2021/07/12 08:49:42;;;;;;;11.45;8.77;;;;;;;30.07;37.03;99330.16;5032346;28;20502;-73
2021/07/12 08:52:08;;;;;;;15.38;9.20;;;;;;;30.48;36.62;99361.78;5032288;28;20026;-74
2021/07/12 08:54:34;;;;;;;12.65;9.63;;;;;;;30.51;36.63;99348.34;5032572;28;20032;-73
2021/07/12 08:57:00;;;;;;;9.88;8.40;;;;;;;30.34;35.78;99319.06;5031751;28;20463;-74
2021/07/12 08:59:28;;;;;;;10.88;8.32;;;;;;;30.79;34.91;99367.22;5031769;28;20057;-71
2021/07/12 09:02:07;;;;;;;10.48;9.40;;;;;;;30.57;34.62;99305.41;5030579;28;20394;-74
2021/07/12 09:04:35;;;;;;;9.77;7.90;;;;;;;30.73;34.19;99331.13;5031582;28;20029;-74
2021/07/12 09:07:03;;;;;;;9.73;8.52;;;;;;;31.03;34.45;99356.69;5047522;28;20070;-75
2021/07/12 09:09:29;;;;;;;11.35;8.75;;;;;;;31.12;34.13;99356.72;5041071;28;20025;-75
2021/07/12 09:11:55;;;;;;;18.20;13.35;;;;;;;31.09;34.01;99328.16;5051170;28;20486;-72
2021/07/12 09:14:20;;;;;;;10.82;9.40;;;;;;;31.26;33.99;99344.59;5043111;28;20033;-72
2021/07/12 09:16:47;;;;;;;13.60;10.85;;;;;;;31.35;33.95;99350.06;5049406;28;20029;-72
2021/07/12 09:19:29;;;;;;;10.18;8.60;;;;;;;31.51;34.34;99358.56;5043472;28;20035;-73
2021/07/12 09:21:55;;;;;;;11.20;8.93;;;;;;;31.63;33.67;99350.53;5049109;28;20037;-72
2021/07/12 09:24:31;;;;;;;17.90;9.57;;;;;;;31.52;32.83;99314.59;5041267;28;20081;-72
2021/07/12 09:27:18;;;;;;;9.25;8.10;;;;;;;31.89;31.73;99345.88;5031768;28;20022;-75
2021/07/12 09:29:46;;;;;;;12.70;10.23;;;;;;;31.24;31.04;99234.19;5031697;28;20021;-75
2021/07/12 09:32:23;;;;;;;10.27;8.95;;;;;;;32.26;29.93;99351.00;5031515;28;20036;-75
2021/07/12 09:34:54;;;;;;;7.97;7.22;;;;;;;32.04;30.50;99284.50;5031560;28;20029;-75
2021/07/12 09:37:20;;;;;;;11.35;8.50;;;;;;;32.63;30.31;99352.94;5033724;28;20036;-73
2021/07/12 09:39:48;;;;;;;9.23;6.47;;;;;;;32.78;29.70;99348.91;5030026;28;20026;-73
2021/07/12 09:42:19;;;;;;;9.55;6.80;;;;;;;32.75;29.24;99319.44;5030711;28;20554;-74
2021/07/12 09:45:05;;;;;;;;;;;;;;;33.02;29.20;99356.47;5036053;28;20037;-75
2021/07/12 09:47:33;;;;;;;12.45;11.25;;;;;;;32.99;29.21;99295.03;5032987;28;19912;-74
2021/07/12 09:50:10;;;;;;;7.97;7.18;;;;;;;33.54;27.97;99347.94;5030944;28;20025;-74
2021/07/12 09:52:38;;;;;;;12.02;7.63;;;;;;;33.64;27.46;99353.81;5031074;28;20489;-74
2021/07/12 09:55:03;;;;;;;11.13;9.90;;;;;;;33.67;27.66;99325.75;5033040;28;20059;-75
2021/07/12 09:57:29;;;;;;;8.38;7.28;;;;;;;33.85;26.93;99342.03;5034069;28;20111;-74
2021/07/12 10:00:09;;;;;;;14.63;11.77;;;;;;;34.05;27.52;99338.44;5049444;28;20493;-74
2021/07/12 10:02:36;;;;;;;13.35;11.80;;;;;;;33.94;26.86;99288.78;5059255;28;20116;-73
2021/07/12 10:05:02;;;;;;;13.18;7.88;;;;;;;34.47;26.66;99336.41;5030473;28;20056;-74
2021/07/12 10:07:28;;;;;;;10.23;7.25;;;;;;;34.46;26.53;99334.00;5032094;28;20119;-75
2021/07/12 10:09:54;;;;;;;10.80;9.13;;;;;;;34.57;26.55;99343.38;5030547;28;20494;-75
2021/07/12 10:12:20;;;;;;;9.15;7.72;;;;;;;34.40;26.24;99289.56;5040713;28;20060;-73
2021/07/12 10:14:46;;;;;;;8.25;6.95;;;;;;;34.88;26.25;99337.34;5050602;28;20055;-74
2021/07/12 10:17:12;;;;;;;9.63;6.78;;;;;;;34.70;25.76;99325.78;5034528;28;20029;-73
2021/07/12 10:19:38;;;;;;;7.57;6.72;;;;;;;34.70;25.88;99312.06;5030581;28;20048;-73
2021/07/12 10:22:05;;;;;;;10.00;7.75;;;;;;;34.97;26.51;99340.78;5029961;28;20029;-73
2021/07/12 10:24:42;;;;;;;7.95;7.05;;;;;;;35.11;26.27;99330.25;5030839;28;20032;-74
2021/07/12 10:27:23;;;;;;;7.55;6.78;;;;;;;35.24;25.40;99325.53;5041867;28;20040;-75
2021/07/12 10:29:49;;;;;;;9.85;8.20;;;;;;;35.49;25.94;99338.06;5050706;28;20430;-73
2021/07/12 10:32:17;;;;;;;9.35;7.72;;;;;;;35.57;25.45;99333.56;5050780;28;20036;-74
2021/07/12 10:34:55;;;;;;;11.13;7.40;;;;;;;35.51;25.49;99302.00;5042018;28;20031;-75
2021/07/12 10:37:34;;;;;;;8.35;7.55;;;;;;;35.73;25.11;99331.69;5036480;28;20040;-74
2021/07/12 10:40:06;;;;;;;10.98;8.63;;;;;;;35.55;25.39;99284.47;5048285;28;20108;-75
2021/07/12 10:42:43;;;;;;;9.10;7.10;;;;;;;35.89;25.47;99321.56;5035952;28;20090;-74
2021/07/12 10:45:18;;;;;;;11.45;9.50;;;;;;;35.87;25.23;99325.81;5041030;28;20413;-74
2021/07/12 10:47:48;;;;;;;9.02;8.07;;;;;;;35.79;25.06;99305.56;5042359;28;20032;-75
2021/07/12 10:50:39;;;;;;;13.20;8.45;;;;;;;36.15;23.34;99317.50;5045563;28;20028;-73
2021/07/12 10:53:17;;;;;;;15.82;6.47;;;;;;;36.26;24.04;99326.81;5047904;28;20022;-73
2021/07/12 10:56:03;;;;;;;8.77;5.97;;;;;;;36.26;22.93;99310.31;5030451;28;20033;-74
2021/07/12 10:58:32;;;;;;;7.57;6.13;;;;;;;36.32;22.39;99328.19;5029419;28;20037;-74
2021/07/12 11:01:01;;;;;;;8.90;7.72;;;;;;;36.42;22.35;99324.13;5037829;28;20066;-75
2021/07/12 11:03:38;;;;;;;12.05;10.93;;;;;;;36.53;22.91;99320.47;5050203;28;20051;-75
2021/07/12 11:06:10;;;;;;;9.55;7.78;;;;;;;36.33;23.18;99276.75;5049075;28;20108;-75
2021/07/12 11:08:50;;;;;;;7.43;5.88;;;;;;;36.94;23.24;99323.00;5040506;28;20037;-74
2021/07/12 11:11:18;;;;;;;8.18;7.05;;;;;;;37.16;22.99;99319.56;5049043;28;20064;-74
2021/07/12 11:13:58;;;;;;;8.52;6.75;;;;;;;37.30;22.39;99314.41;5050092;28;20418;-73
2021/07/12 11:16:47;;;;;;;6.53;5.82;;;;;;;37.04;21.99;99268.19;5032125;28;20088;-74
2021/07/12 11:19:33;;;;;;;12.02;7.88;;;;;;;37.38;21.86;99320.88;5030297;28;20033;-74
2021/07/12 11:22:13;;;;;;;12.95;10.75;;;;;;;37.28;21.93;99319.47;5031311;28;20065;-74
2021/07/12 11:24:58;;;;;;;8.75;8.05;;;;;;;37.01;21.67;99259.84;5039300;28;20468;-79
2021/07/12 11:27:41;;;;;;;9.93;7.13;;;;;;;37.39;21.61;99267.38;5028747;28;20481;-78
2021/07/12 11:30:26;;;;;;;8.55;7.50;;;;;;;38.02;21.15;99322.16;5030450;28;20518;-79
2021/07/12 11:32:52;;;;;;;7.65;6.03;;;;;;;38.07;21.21;99314.38;5030376;28;20099;-79